createdAt,value
2023-12-16T00:00:00.533Z,18.60
2023-12-16T00:02:27.434Z,18.20
2023-12-16T00:04:54.345Z,16.70
2023-12-16T00:07:21.156Z,18.77
2023-12-16T00:09:48.823Z,18.00
2023-12-16T00:12:17.021Z,20.37
2023-12-16T00:14:45.794Z,20.10
2023-12-16T00:17:13.232Z,18.63
2023-12-16T00:19:40.337Z,15.33
2023-12-16T00:22:07.346Z,21.10
2023-12-16T00:24:34.172Z,19.30
2023-12-16T00:27:01.110Z,19.47
2023-12-16T00:29:27.896Z,15.67
2023-12-16T00:31:54.712Z,19.30
2023-12-16T00:34:21.683Z,17.03
2023-12-16T00:36:49.642Z,15.30
2023-12-16T00:39:16.440Z,21.00
2023-12-16T00:41:44.049Z,19.33
2023-12-16T00:44:10.855Z,16.17
2023-12-16T00:46:37.807Z,17.90
2023-12-16T00:49:05.547Z,17.07
2023-12-16T00:51:32.561Z,16.77
2023-12-16T00:53:59.389Z,17.43
2023-12-16T00:56:26.163Z,20.73
2023-12-16T00:58:55.357Z,18.83
2023-12-16T01:01:22.220Z,17.87
2023-12-16T01:03:49.232Z,20.13
2023-12-16T01:06:16.229Z,19.37
2023-12-16T01:08:44.199Z,16.53
2023-12-16T01:11:13.853Z,14.60
2023-12-16T01:13:40.744Z,11.40
2023-12-16T01:16:08.260Z,15.43
2023-12-16T01:18:35.258Z,16.47
2023-12-16T01:21:06.429Z,18.67
2023-12-16T01:23:33.556Z,17.00
2023-12-16T01:26:00.399Z,19.30
2023-12-16T01:28:27.335Z,16.80
2023-12-16T01:30:54.431Z,14.90
2023-12-16T01:33:21.343Z,22.53
2023-12-16T01:35:48.298Z,18.40
2023-12-16T01:38:15.404Z,29.93
2023-12-16T01:40:42.394Z,16.77
2023-12-16T01:43:09.686Z,15.57
2023-12-16T01:45:36.596Z,14.37
2023-12-16T01:48:05.368Z,19.20
2023-12-16T01:50:34.521Z,17.63
2023-12-16T01:53:02.116Z,16.47
2023-12-16T01:55:29.480Z,19.30
2023-12-16T01:57:57.114Z,20.17
2023-12-16T02:00:24.918Z,14.47
2023-12-16T02:02:51.932Z,16.67
2023-12-16T02:05:19.101Z,16.20
2023-12-16T02:07:46.031Z,16.30
2023-12-16T02:10:13.031Z,15.93
2023-12-16T02:12:39.946Z,13.40
2023-12-16T02:15:07.489Z,17.90
2023-12-16T02:17:34.292Z,14.80
2023-12-16T02:20:01.300Z,17.97
2023-12-16T02:22:28.243Z,16.60
2023-12-16T02:24:56.615Z,17.10
2023-12-16T02:27:23.521Z,16.03
2023-12-16T02:29:50.421Z,13.77
2023-12-16T02:32:17.249Z,19.80
2023-12-16T02:34:44.154Z,18.60
2023-12-16T02:37:12.128Z,16.10
2023-12-16T02:39:38.887Z,17.33
2023-12-16T02:42:05.842Z,12.77
2023-12-16T02:44:32.754Z,16.70
2023-12-16T02:46:59.616Z,16.07
2023-12-16T02:49:29.787Z,13.50
2023-12-16T02:51:56.680Z,13.17
2023-12-16T02:54:23.521Z,14.60
2023-12-16T02:56:50.347Z,18.80
2023-12-16T02:59:17.098Z,16.97
2023-12-16T03:01:44.042Z,13.77
2023-12-16T03:04:10.934Z,17.30
2023-12-16T03:06:43.917Z,20.80
2023-12-16T03:09:11.062Z,16.30
2023-12-16T03:11:38.441Z,17.33
2023-12-16T03:14:05.426Z,17.00
2023-12-16T03:16:34.492Z,16.17
2023-12-16T03:19:01.507Z,16.07
2023-12-16T03:21:28.416Z,21.00
2023-12-16T03:23:55.278Z,23.10
2023-12-16T03:26:22.323Z,15.40
2023-12-16T03:28:49.084Z,17.33
2023-12-16T03:31:16.157Z,16.20
2023-12-16T03:33:43.105Z,19.30
2023-12-16T03:36:10.151Z,20.63
2023-12-16T03:38:36.927Z,20.20
2023-12-16T03:41:06.741Z,22.13
2023-12-16T03:43:33.576Z,19.63
2023-12-16T03:46:00.476Z,19.10
2023-12-16T03:48:27.485Z,17.53
2023-12-16T03:50:54.413Z,13.70
2023-12-16T03:53:21.315Z,15.83
2023-12-16T03:55:48.151Z,15.10
2023-12-16T03:58:15.032Z,14.73
2023-12-16T04:00:41.887Z,15.77
2023-12-16T04:03:08.740Z,14.50
2023-12-16T04:05:36.593Z,14.67
2023-12-16T04:08:04.857Z,19.00
2023-12-16T04:10:31.666Z,12.73
2023-12-16T04:12:59.207Z,15.60
2023-12-16T04:15:26.018Z,11.83
2023-12-16T04:17:53.088Z,16.93
2023-12-16T04:20:20.170Z,19.13
2023-12-16T04:22:47.050Z,17.03
2023-12-16T04:25:13.981Z,14.30
2023-12-16T04:27:41.018Z,16.93
2023-12-16T04:30:08.740Z,17.37
2023-12-16T04:32:35.651Z,18.07
2023-12-16T04:35:02.645Z,17.80
2023-12-16T04:37:29.450Z,20.47
2023-12-16T04:39:56.384Z,14.73
2023-12-16T04:42:23.541Z,14.50
2023-12-16T04:44:50.509Z,19.67
2023-12-16T04:47:17.558Z,15.83
2023-12-16T04:49:44.441Z,17.07
2023-12-16T04:52:11.505Z,15.00
2023-12-16T04:54:38.431Z,17.53
2023-12-16T04:57:05.460Z,16.50
2023-12-16T04:59:32.318Z,16.70
2023-12-16T05:01:59.805Z,16.03
2023-12-16T05:04:27.279Z,20.90
2023-12-16T05:06:55.608Z,23.13
2023-12-16T05:09:22.688Z,20.43
2023-12-16T05:11:49.545Z,24.20
2023-12-16T05:14:16.428Z,28.20
2023-12-16T05:16:43.220Z,20.20
2023-12-16T05:19:10.291Z,21.63
2023-12-16T05:21:37.247Z,19.00
2023-12-16T05:24:04.434Z,22.53
2023-12-16T05:26:31.279Z,17.97
2023-12-16T05:28:58.190Z,19.20
2023-12-16T05:31:24.965Z,16.67
2023-12-16T05:33:51.982Z,18.30
2023-12-16T05:36:18.912Z,12.60
2023-12-16T05:38:45.831Z,20.03
2023-12-16T05:41:15.580Z,16.87
2023-12-16T05:43:42.451Z,14.00
2023-12-16T05:46:09.292Z,16.67
2023-12-16T05:48:37.402Z,15.87
2023-12-16T05:51:05.850Z,16.93
2023-12-16T05:53:35.954Z,19.00
2023-12-16T05:56:07.063Z,16.97
2023-12-16T05:58:34.494Z,14.83
2023-12-16T06:01:02.208Z,13.97
2023-12-16T06:03:29.186Z,14.80
2023-12-16T06:05:56.034Z,18.30
2023-12-16T06:08:22.842Z,15.87
2023-12-16T06:10:49.676Z,16.37
2023-12-16T06:13:16.530Z,15.60
2023-12-16T06:15:44.428Z,14.53
2023-12-16T06:18:11.458Z,15.53
2023-12-16T06:20:38.431Z,17.23
2023-12-16T06:23:05.239Z,13.67
2023-12-16T06:25:32.082Z,14.77
2023-12-16T06:27:58.904Z,17.30
2023-12-16T06:30:25.808Z,17.77
2023-12-16T06:32:52.761Z,16.90
2023-12-16T06:35:19.678Z,19.80
2023-12-16T06:37:46.532Z,16.40
2023-12-16T06:40:13.572Z,20.57
2023-12-16T06:42:40.511Z,14.77
2023-12-16T06:45:08.077Z,17.33
2023-12-16T06:47:34.929Z,15.13
2023-12-16T06:50:01.893Z,18.67
2023-12-16T06:52:28.901Z,22.43
2023-12-16T06:54:55.880Z,23.00
2023-12-16T06:57:22.734Z,19.17
2023-12-16T06:59:49.550Z,17.03
2023-12-16T07:02:16.420Z,18.87
2023-12-16T07:04:43.406Z,15.03
2023-12-16T07:07:10.385Z,19.43
2023-12-16T07:09:37.288Z,22.30
2023-12-16T07:12:04.427Z,21.90
2023-12-16T07:14:31.206Z,17.03
2023-12-16T07:17:03.190Z,13.13
2023-12-16T07:19:31.301Z,16.13
2023-12-16T07:21:59.491Z,17.70
2023-12-16T07:24:26.400Z,17.30
2023-12-16T07:26:53.224Z,15.60
2023-12-16T07:29:22.508Z,22.40
2023-12-16T07:34:51.836Z,17.30
2023-12-16T07:37:23.000Z,17.10
2023-12-16T07:49:02.064Z,16.20
2023-12-16T07:51:29.316Z,17.13
2023-12-16T07:53:58.344Z,18.80
2023-12-16T07:56:27.860Z,21.97
2023-12-16T07:58:54.738Z,16.83
2023-12-16T08:01:22.337Z,17.53
2023-12-16T08:03:49.595Z,19.80
2023-12-16T08:06:17.431Z,18.93
2023-12-16T08:08:46.476Z,21.70
2023-12-16T08:11:13.863Z,20.83
2023-12-16T08:13:40.835Z,17.90
2023-12-16T08:16:11.267Z,18.27
2023-12-16T08:18:38.632Z,18.20
2023-12-16T08:21:05.755Z,15.83
2023-12-16T08:23:32.662Z,15.50
2023-12-16T08:25:59.506Z,14.50
2023-12-16T08:28:26.375Z,14.97
2023-12-16T08:30:55.120Z,21.33
2023-12-16T08:33:22.170Z,13.33
2023-12-16T08:35:49.162Z,16.43
2023-12-16T08:38:16.070Z,16.50
2023-12-16T08:40:43.024Z,14.77
2023-12-16T08:43:10.261Z,19.40
2023-12-16T08:45:37.168Z,16.83
2023-12-16T08:48:05.100Z,16.60
2023-12-16T08:50:32.015Z,15.17
2023-12-16T08:52:58.901Z,19.70
2023-12-16T08:55:27.677Z,14.33
2023-12-16T08:57:54.787Z,14.30
2023-12-16T09:00:21.869Z,13.60
2023-12-16T09:02:48.735Z,14.30
2023-12-16T09:05:17.390Z,14.30
2023-12-16T09:07:44.308Z,12.97
2023-12-16T09:10:11.298Z,10.90
2023-12-16T09:12:38.601Z,11.37
2023-12-16T09:15:06.247Z,12.30
2023-12-16T09:17:33.248Z,10.93
2023-12-16T09:20:00.376Z,12.90
2023-12-16T09:22:27.363Z,9.97
2023-12-16T09:24:54.219Z,9.40
2023-12-16T09:27:21.128Z,11.53
2023-12-16T09:29:47.951Z,9.60
2023-12-16T09:32:15.481Z,10.33
2023-12-16T09:34:43.410Z,12.00
2023-12-16T09:37:10.473Z,13.20
2023-12-16T09:39:37.364Z,11.53
2023-12-16T09:42:04.867Z,22.70
2023-12-16T09:44:37.856Z,11.17
2023-12-16T09:47:05.371Z,11.70
2023-12-16T09:49:32.456Z,10.90
2023-12-16T09:51:59.644Z,11.97
2023-12-16T09:54:26.628Z,10.40
2023-12-16T09:56:55.014Z,9.30
2023-12-16T09:59:24.405Z,18.87
2023-12-16T10:01:54.519Z,15.53
2023-12-16T10:04:23.996Z,9.93
2023-12-16T10:09:19.782Z,8.20
2023-12-16T10:14:25.504Z,9.13
2023-12-16T10:17:03.440Z,9.67
2023-12-16T10:19:30.364Z,12.03
2023-12-16T10:21:57.821Z,10.23
2023-12-16T10:24:24.873Z,8.30
2023-12-16T10:26:51.730Z,9.30
2023-12-16T10:29:20.853Z,9.60
2023-12-16T10:31:48.036Z,8.80
2023-12-16T10:34:17.436Z,7.37
2023-12-16T10:36:44.435Z,9.53
2023-12-16T10:39:11.253Z,10.23
2023-12-16T10:41:38.095Z,7.10
2023-12-16T10:44:05.213Z,9.00
2023-12-16T10:46:36.388Z,9.07
2023-12-16T10:49:08.765Z,7.47
2023-12-16T10:51:42.710Z,7.67
2023-12-16T10:54:17.012Z,8.90
2023-12-16T10:56:53.254Z,8.60
2023-12-16T10:59:27.401Z,4.97
2023-12-16T11:01:58.773Z,8.60
2023-12-16T11:04:29.064Z,8.20
2023-12-16T11:07:04.250Z,5.50
2023-12-16T11:09:32.029Z,6.53
2023-12-16T11:12:01.866Z,7.07
2023-12-16T11:14:30.629Z,6.90
2023-12-16T11:17:06.706Z,7.30
2023-12-16T11:19:39.290Z,5.60
2023-12-16T11:22:06.257Z,7.53
2023-12-16T11:24:41.852Z,5.50
2023-12-16T11:27:09.101Z,6.60
2023-12-16T11:29:36.042Z,3.43
2023-12-16T11:34:41.947Z,4.80
2023-12-16T11:37:08.969Z,6.37
2023-12-16T11:39:38.314Z,4.17
2023-12-16T11:42:06.321Z,3.90
2023-12-16T11:44:56.350Z,5.53
2023-12-16T11:47:28.011Z,3.97
2023-12-16T11:49:56.640Z,5.50
2023-12-16T11:52:26.044Z,5.40
2023-12-16T11:54:57.501Z,4.83
2023-12-16T11:57:26.991Z,4.23
2023-12-16T11:59:55.632Z,5.00
2023-12-16T12:02:22.870Z,6.93
2023-12-16T12:04:50.139Z,5.67
2023-12-16T12:07:18.062Z,5.33
2023-12-16T12:09:45.900Z,5.03
2023-12-16T12:12:13.560Z,4.93
2023-12-16T12:14:46.541Z,3.77
2023-12-16T12:17:14.748Z,7.10
2023-12-16T12:19:45.226Z,4.43
2023-12-16T12:22:12.501Z,7.47
2023-12-16T12:24:39.589Z,9.40
2023-12-16T12:27:06.512Z,5.27
2023-12-16T12:30:05.961Z,6.43
2023-12-16T12:32:34.388Z,4.80
2023-12-16T12:35:08.274Z,4.43
2023-12-16T12:37:39.604Z,4.20
2023-12-16T12:40:17.485Z,4.83
2023-12-16T12:42:50.612Z,3.40
2023-12-16T12:45:25.854Z,5.10
2023-12-16T12:47:54.183Z,3.17
2023-12-16T12:50:27.682Z,3.07
2023-12-16T12:53:19.165Z,3.10
2023-12-16T12:55:44.515Z,2.77
2023-12-16T12:58:19.722Z,6.90
2023-12-16T13:00:53.462Z,7.60
2023-12-16T13:03:20.885Z,2.80
2023-12-16T13:05:48.090Z,4.43
2023-12-16T13:08:16.387Z,2.87
2023-12-16T13:10:45.970Z,3.10
2023-12-16T13:13:13.021Z,5.70
2023-12-16T13:15:53.943Z,4.60
2023-12-16T13:18:24.784Z,3.37
2023-12-16T13:20:52.507Z,4.37
2023-12-16T13:23:19.508Z,4.07
2023-12-16T13:25:46.392Z,4.20
2023-12-16T13:28:13.922Z,6.80
2023-12-16T13:30:42.156Z,7.20
2023-12-16T13:33:09.841Z,4.20
2023-12-16T13:35:37.913Z,5.37
2023-12-16T13:38:07.434Z,3.30
2023-12-16T13:40:37.806Z,4.63
2023-12-16T13:43:10.587Z,7.53
2023-12-16T13:45:37.533Z,4.63
2023-12-16T13:48:04.965Z,2.67
2023-12-16T13:50:32.095Z,6.13
2023-12-16T13:52:59.609Z,4.27
2023-12-16T13:55:26.702Z,5.50
2023-12-16T13:57:53.621Z,7.10
2023-12-16T14:00:20.619Z,8.07
2023-12-16T14:02:47.556Z,8.90
2023-12-16T14:05:14.635Z,14.07
2023-12-16T14:07:42.019Z,8.60
2023-12-16T14:10:09.740Z,8.27
2023-12-16T14:12:45.819Z,9.93
2023-12-16T14:15:12.859Z,7.40
2023-12-16T14:17:40.111Z,6.93
2023-12-16T14:20:07.949Z,7.50
2023-12-16T14:22:34.791Z,7.17
2023-12-16T14:25:01.821Z,5.17
2023-12-16T14:27:28.796Z,7.60
2023-12-16T14:29:55.768Z,12.80
2023-12-16T14:32:22.712Z,7.43
2023-12-16T14:34:49.786Z,6.13
2023-12-16T14:37:16.767Z,7.83
2023-12-16T14:39:43.586Z,4.70
2023-12-16T14:42:13.621Z,8.10
2023-12-16T14:44:40.687Z,6.70
2023-12-16T14:47:07.929Z,8.73
2023-12-16T14:49:35.137Z,7.53
2023-12-16T14:52:02.085Z,9.17
2023-12-16T14:54:28.973Z,5.20
2023-12-16T14:56:55.963Z,8.23
2023-12-16T14:59:25.837Z,10.37
2023-12-16T15:01:52.937Z,6.00
2023-12-16T15:04:19.957Z,11.97
2023-12-16T15:06:46.990Z,7.90
2023-12-16T15:09:16.142Z,14.70
2023-12-16T15:11:43.386Z,10.10
2023-12-16T15:14:15.418Z,8.50
2023-12-16T15:16:42.366Z,9.10
2023-12-16T15:19:09.550Z,12.10
2023-12-16T15:21:40.187Z,7.80
2023-12-16T15:24:08.283Z,14.00
2023-12-16T15:26:35.291Z,12.30
2023-12-16T15:29:03.866Z,9.83
2023-12-16T15:31:30.868Z,11.73
2023-12-16T15:33:58.148Z,11.30
2023-12-16T15:36:25.226Z,15.30
2023-12-16T15:38:52.145Z,14.30
2023-12-16T15:41:19.156Z,20.37
2023-12-16T15:43:46.070Z,13.73
2023-12-16T15:46:13.941Z,13.97
2023-12-16T15:48:41.838Z,13.80
2023-12-16T15:51:09.350Z,14.37
2023-12-16T15:53:36.621Z,12.13
2023-12-16T15:56:05.288Z,12.87
2023-12-16T15:58:32.235Z,19.63
2023-12-16T16:00:59.191Z,17.47
2023-12-16T16:03:26.449Z,12.00
2023-12-16T16:05:53.865Z,10.67
2023-12-16T16:08:20.851Z,14.37
2023-12-16T16:10:47.847Z,14.67
2023-12-16T16:13:14.805Z,12.10
2023-12-16T16:15:41.707Z,15.73
2023-12-16T16:18:08.854Z,16.27
2023-12-16T16:20:37.832Z,19.60
2023-12-16T16:23:06.299Z,26.50
2023-12-16T16:25:34.067Z,16.87
2023-12-16T16:28:01.758Z,21.20
2023-12-16T16:30:29.049Z,11.37
2023-12-16T16:32:56.086Z,12.10
2023-12-16T16:35:23.324Z,12.03
2023-12-16T16:37:50.282Z,11.30
2023-12-16T16:40:18.484Z,15.20
2023-12-16T16:42:45.452Z,14.10
2023-12-16T16:45:12.509Z,20.80
2023-12-16T16:47:39.880Z,21.70
2023-12-16T16:50:07.605Z,13.87
2023-12-16T16:52:36.643Z,15.00
2023-12-16T16:55:03.893Z,15.00
2023-12-16T16:57:30.892Z,12.63
2023-12-16T17:00:02.240Z,13.43
2023-12-16T17:02:30.109Z,15.60
2023-12-16T17:04:58.101Z,20.03
2023-12-16T17:07:25.040Z,15.17
2023-12-16T17:09:52.256Z,16.53
2023-12-16T17:12:19.190Z,19.50
2023-12-16T17:14:45.996Z,20.57
2023-12-16T17:17:13.139Z,19.27
2023-12-16T17:19:39.996Z,23.87
2023-12-16T17:22:09.952Z,17.70
2023-12-16T17:24:37.360Z,15.13
2023-12-16T17:27:04.616Z,23.77
2023-12-16T17:29:31.623Z,18.50
2023-12-16T17:31:58.559Z,19.67
2023-12-16T17:34:25.502Z,20.60
2023-12-16T17:36:52.474Z,22.00
2023-12-16T17:39:19.529Z,15.37
2023-12-16T17:41:46.466Z,17.73
2023-12-16T17:44:13.679Z,20.23
2023-12-16T17:46:40.524Z,29.97
2023-12-16T17:49:07.615Z,14.23
2023-12-16T17:51:34.712Z,18.80
2023-12-16T17:54:02.032Z,13.30
2023-12-16T17:56:29.218Z,11.10
2023-12-16T17:58:56.204Z,13.07
2023-12-16T18:01:23.391Z,13.27
2023-12-16T18:03:52.655Z,13.97
2023-12-16T18:06:21.284Z,19.73
2023-12-16T18:08:48.175Z,25.63
2023-12-16T18:11:15.162Z,20.87
2023-12-16T18:13:42.438Z,17.27
2023-12-16T18:16:09.620Z,14.00
2023-12-16T18:18:42.419Z,18.77
2023-12-16T18:21:11.057Z,18.57
2023-12-16T18:23:38.082Z,13.20
2023-12-16T18:26:05.809Z,15.90
2023-12-16T18:28:32.748Z,13.20
2023-12-16T18:31:00.718Z,14.63
2023-12-16T18:33:28.811Z,11.23
2023-12-16T18:35:55.988Z,15.07
2023-12-16T18:38:23.708Z,13.67
2023-12-16T18:40:50.661Z,10.97
2023-12-16T18:43:17.469Z,14.53
2023-12-16T18:45:44.433Z,13.40
2023-12-16T18:48:12.015Z,15.70
2023-12-16T18:50:41.262Z,15.53
2023-12-16T18:53:08.335Z,12.93
2023-12-16T18:55:35.188Z,15.90
2023-12-16T18:58:02.506Z,19.53
2023-12-16T19:00:29.831Z,13.13
2023-12-16T19:02:57.278Z,13.03
2023-12-16T19:05:24.329Z,11.40
2023-12-16T19:07:51.275Z,12.53
2023-12-16T19:10:18.353Z,15.87
2023-12-16T19:12:45.278Z,19.33
2023-12-16T19:15:12.330Z,17.10
2023-12-16T19:17:39.739Z,19.90
2023-12-16T19:20:08.088Z,15.40
2023-12-16T19:22:35.662Z,17.83
2023-12-16T19:25:03.337Z,13.80
2023-12-16T19:27:30.903Z,13.90
2023-12-16T19:29:57.814Z,13.90
2023-12-16T19:32:24.697Z,14.13
2023-12-16T19:34:51.535Z,11.13
2023-12-16T19:37:18.814Z,17.87
2023-12-16T19:39:45.709Z,17.63
2023-12-16T19:42:12.717Z,20.77
2023-12-16T19:44:40.042Z,17.00
2023-12-16T19:47:07.079Z,24.27
2023-12-16T19:49:34.164Z,20.87
2023-12-16T19:52:01.301Z,24.00
2023-12-16T19:54:28.343Z,24.20
2023-12-16T19:56:55.495Z,27.00
2023-12-16T19:59:22.609Z,23.10
2023-12-16T20:01:50.006Z,23.87
2023-12-16T20:04:17.629Z,17.40
2023-12-16T20:06:45.100Z,15.17
2023-12-16T20:09:12.563Z,12.80
2023-12-16T20:11:39.555Z,13.43
2023-12-16T20:14:06.662Z,11.37
2023-12-16T20:16:33.553Z,13.47
2023-12-16T20:19:02.325Z,11.60
2023-12-16T20:21:29.545Z,11.80
2023-12-16T20:23:56.896Z,10.10
2023-12-16T20:26:24.053Z,12.30
2023-12-16T20:28:52.016Z,10.50
2023-12-16T20:31:20.171Z,12.20
2023-12-16T20:33:48.357Z,12.03
2023-12-16T20:36:18.742Z,11.40
2023-12-16T20:39:01.023Z,12.93
2023-12-16T20:41:27.893Z,11.60
2023-12-16T20:43:54.815Z,14.47
2023-12-16T20:46:23.759Z,10.33
2023-12-16T20:48:51.229Z,11.60
2023-12-16T20:51:18.482Z,12.97
2023-12-16T20:53:45.918Z,14.60
2023-12-16T20:56:12.819Z,12.67
2023-12-16T20:58:39.752Z,13.00
2023-12-16T21:01:07.038Z,12.70
2023-12-16T21:03:34.190Z,16.90
2023-12-16T21:06:01.219Z,16.70
2023-12-16T21:08:28.187Z,14.33
2023-12-16T21:10:55.567Z,16.20
2023-12-16T21:13:24.737Z,13.90
2023-12-16T21:15:53.589Z,16.40
2023-12-16T21:18:20.913Z,11.93
2023-12-16T21:20:47.948Z,14.30
2023-12-16T21:23:15.088Z,11.73
2023-12-16T21:25:42.190Z,17.80
2023-12-16T21:28:09.139Z,11.80
2023-12-16T21:30:37.018Z,18.30
2023-12-16T21:33:04.756Z,13.77
2023-12-16T21:35:31.743Z,14.50
2023-12-16T21:38:00.433Z,16.50
2023-12-16T21:40:27.502Z,17.23
2023-12-16T21:42:55.493Z,18.20
2023-12-16T21:45:22.477Z,20.50
2023-12-16T21:47:49.602Z,22.20
2023-12-16T21:50:18.630Z,23.63
2023-12-16T21:52:46.119Z,24.57
2023-12-16T21:55:13.376Z,31.10
2023-12-16T21:57:40.873Z,26.33
2023-12-16T22:02:50.079Z,32.30
2023-12-16T22:05:17.598Z,30.10
2023-12-16T22:07:46.060Z,31.80
2023-12-16T22:10:13.487Z,29.87
2023-12-16T22:12:40.751Z,23.47
2023-12-16T22:15:08.456Z,21.80
2023-12-16T22:17:36.268Z,21.13
2023-12-16T22:20:03.697Z,25.80
2023-12-16T22:22:31.454Z,25.97
2023-12-16T22:24:58.781Z,22.63
2023-12-16T22:27:26.126Z,22.70
2023-12-16T22:29:54.371Z,18.50
2023-12-16T22:32:21.709Z,18.30
2023-12-16T22:34:49.501Z,22.23
2023-12-16T22:37:16.897Z,27.30
2023-12-16T22:39:44.937Z,25.27
2023-12-16T22:42:12.194Z,33.47
2023-12-16T22:44:39.699Z,27.80
2023-12-16T22:47:06.994Z,22.03
2023-12-16T22:49:34.363Z,29.10
2023-12-16T22:52:01.754Z,21.13
2023-12-16T22:54:29.068Z,20.83
2023-12-16T22:56:56.375Z,21.73
2023-12-16T22:59:23.613Z,29.23
2023-12-16T23:01:50.846Z,28.03
2023-12-16T23:04:17.822Z,21.97
2023-12-16T23:06:45.613Z,21.97
2023-12-16T23:09:15.064Z,33.83
2023-12-16T23:11:42.511Z,23.20
2023-12-16T23:14:09.962Z,22.43
2023-12-16T23:16:37.440Z,22.20
2023-12-16T23:19:04.726Z,20.93
2023-12-16T23:21:31.662Z,19.83
2023-12-16T23:23:58.507Z,17.73
2023-12-16T23:26:25.760Z,12.80
2023-12-16T23:28:53.110Z,17.90
2023-12-16T23:31:19.980Z,15.83
2023-12-16T23:33:47.127Z,17.53
2023-12-16T23:36:14.608Z,17.40
2023-12-16T23:41:15.914Z,15.13
2023-12-16T23:43:43.134Z,12.87
2023-12-16T23:46:14.466Z,15.63
2023-12-16T23:48:42.721Z,16.33
2023-12-16T23:51:09.904Z,16.00
2023-12-16T23:53:37.365Z,14.77
2023-12-16T23:56:06.029Z,11.67
2023-12-16T23:58:34.776Z,21.03
